createdAt,value
2019-03-28T00:00:54.377Z,0.30
2019-03-28T00:17:02.806Z,0.18
2019-03-28T00:19:33.598Z,0.19
2019-03-28T00:22:05.667Z,0.21
2019-03-28T00:24:43.438Z,0.19
2019-03-28T00:27:13.847Z,0.14
2019-03-28T00:29:43.494Z,0.21
2019-03-28T00:32:13.497Z,0.11
2019-03-28T00:34:43.831Z,0.09
2019-03-28T00:37:14.802Z,0.02
2019-03-28T00:39:45.371Z,0.06
2019-03-28T00:42:15.021Z,-0.05
2019-03-28T00:44:44.691Z,-0.17
2019-03-28T00:47:15.113Z,-0.07
2019-03-28T00:49:45.143Z,-0.12
2019-03-28T00:52:16.174Z,-0.15
2019-03-28T00:54:46.207Z,-0.06
2019-03-28T00:57:17.486Z,-0.16
2019-03-28T00:59:47.154Z,-0.20
2019-03-28T01:02:16.794Z,-0.13
2019-03-28T01:04:47.374Z,-0.25
2019-03-28T01:07:17.266Z,-0.15
2019-03-28T01:09:47.239Z,-0.11
2019-03-28T01:12:16.880Z,-0.10
2019-03-28T01:14:46.544Z,-0.08
2019-03-28T01:17:16.181Z,-0.14
2019-03-28T01:19:45.857Z,-0.11
2019-03-28T01:22:15.826Z,-0.09
2019-03-28T01:24:45.472Z,-0.05
2019-03-28T01:27:16.270Z,-0.02
2019-03-28T01:29:45.899Z,0.02
2019-03-28T01:32:15.556Z,0.02
2019-03-28T01:34:45.463Z,-0.05
2019-03-28T01:37:15.943Z,-0.04
2019-03-28T01:39:45.608Z,0.03
2019-03-28T01:42:15.676Z,-0.05
2019-03-28T01:44:45.325Z,-0.03
2019-03-28T01:47:15.005Z,-0.04
2019-03-28T01:49:44.664Z,-0.05
2019-03-28T01:52:14.360Z,-0.03
2019-03-28T01:54:44.012Z,-0.10
2019-03-28T01:57:13.943Z,-0.10
2019-03-28T01:59:43.585Z,-0.09
2019-03-28T02:02:13.248Z,-0.07
2019-03-28T02:04:42.896Z,-0.04
2019-03-28T02:07:12.564Z,-0.10
2019-03-28T02:09:42.225Z,-0.16
2019-03-28T02:12:11.896Z,-0.03
2019-03-28T02:14:41.559Z,-0.09
2019-03-28T02:17:11.192Z,-0.14
2019-03-28T02:19:41.707Z,-0.17
2019-03-28T02:22:11.385Z,-0.10
2019-03-28T02:24:42.224Z,-0.15
2019-03-28T02:27:23.504Z,-0.08
2019-03-28T02:29:43.627Z,-0.09
2019-03-28T02:32:13.300Z,-0.12
2019-03-28T02:34:43.282Z,-0.12
2019-03-28T02:37:12.941Z,-0.13
2019-03-28T02:39:42.581Z,-0.09
2019-03-28T02:42:12.265Z,-0.13
2019-03-28T02:44:41.884Z,-0.20
2019-03-28T02:47:11.553Z,-0.20
2019-03-28T02:49:41.196Z,-0.26
2019-03-28T02:52:10.897Z,-0.23
2019-03-28T02:54:40.561Z,-0.17
2019-03-28T02:57:10.988Z,-0.22
2019-03-28T02:59:40.650Z,-0.27
2019-03-28T03:02:10.400Z,-0.34
2019-03-28T03:04:40.422Z,-0.43
2019-03-28T03:07:10.065Z,-0.47
2019-03-28T03:09:39.738Z,-0.48
2019-03-28T03:12:09.388Z,-0.57
2019-03-28T03:14:39.077Z,-0.43
2019-03-28T03:17:08.722Z,-0.48
2019-03-28T03:19:38.403Z,-0.46
2019-03-28T03:22:08.041Z,-0.48
2019-03-28T03:24:37.724Z,-0.52
2019-03-28T03:27:07.355Z,-0.57
2019-03-28T03:29:37.307Z,-0.54
2019-03-28T03:32:06.948Z,-0.54
2019-03-28T03:34:36.613Z,-0.55
2019-03-28T03:37:06.597Z,-0.41
2019-03-28T03:39:36.282Z,-0.48
2019-03-28T03:42:06.123Z,-0.45
2019-03-28T03:44:35.801Z,-0.49
2019-03-28T03:47:05.434Z,-0.51
2019-03-28T03:49:35.365Z,-0.50
2019-03-28T03:52:05.036Z,-0.56
2019-03-28T03:54:34.708Z,-0.56
2019-03-28T03:57:04.356Z,-0.55
2019-03-28T03:59:34.020Z,-0.50
2019-03-28T04:02:03.679Z,-0.50
2019-03-28T04:04:33.353Z,-0.47
2019-03-28T04:07:02.996Z,-0.54
2019-03-28T04:09:32.656Z,-0.56
2019-03-28T04:12:02.658Z,-0.52
2019-03-28T04:14:32.315Z,-0.54
2019-03-28T04:17:01.970Z,-0.57
2019-03-28T04:19:32.151Z,-0.57
2019-03-28T04:22:02.047Z,-0.59
2019-03-28T04:24:31.696Z,-0.61
2019-03-28T04:27:01.371Z,-0.57
2019-03-28T04:29:31.198Z,-0.61
2019-03-28T04:32:00.836Z,-0.51
2019-03-28T04:34:30.488Z,-0.61
2019-03-28T04:37:00.147Z,-0.51
2019-03-28T04:39:29.792Z,-0.51
2019-03-28T04:42:00.264Z,-0.52
2019-03-28T04:44:30.173Z,-0.54
2019-03-28T04:46:59.863Z,-0.51
2019-03-28T04:49:29.523Z,-0.49
2019-03-28T04:51:59.587Z,-0.44
2019-03-28T04:54:29.584Z,-0.42
2019-03-28T04:56:59.601Z,-0.36
2019-03-28T04:59:29.243Z,-0.37
2019-03-28T05:02:03.145Z,-0.31
2019-03-28T05:04:30.311Z,-0.26
2019-03-28T05:06:59.970Z,-0.21
2019-03-28T05:09:29.617Z,-0.15
2019-03-28T05:11:59.466Z,-0.04
2019-03-28T05:14:29.117Z,-0.03
2019-03-28T05:16:58.777Z,0.06
2019-03-28T05:19:28.412Z,0.16
2019-03-28T05:21:58.078Z,0.26
2019-03-28T05:24:27.718Z,0.34
2019-03-28T05:26:57.374Z,0.51
2019-03-28T05:29:27.009Z,0.55
2019-03-28T05:31:56.660Z,0.68
2019-03-28T05:34:27.292Z,0.80
2019-03-28T05:36:57.282Z,0.89
2019-03-28T05:39:27.611Z,0.99
2019-03-28T05:41:57.271Z,1.10
2019-03-28T05:44:26.910Z,1.22
2019-03-28T05:46:56.579Z,1.34
2019-03-28T05:49:26.204Z,1.57
2019-03-28T05:51:55.914Z,1.67
2019-03-28T05:54:25.556Z,1.80
2019-03-28T05:56:56.007Z,1.98
2019-03-28T05:59:25.672Z,2.14
2019-03-28T06:01:55.331Z,2.31
2019-03-28T06:04:24.955Z,2.57
2019-03-28T06:06:54.613Z,2.62
2019-03-28T06:09:24.250Z,2.71
2019-03-28T06:11:54.556Z,2.94
2019-03-28T06:14:24.987Z,3.27
2019-03-28T06:16:54.645Z,3.56
2019-03-28T06:19:24.648Z,3.85
2019-03-28T06:21:54.316Z,4.08
2019-03-28T06:24:24.748Z,4.09
2019-03-28T06:26:56.160Z,4.41
2019-03-28T06:29:26.091Z,4.45
2019-03-28T06:31:56.095Z,4.74
2019-03-28T06:34:26.458Z,5.06
2019-03-28T06:36:56.193Z,5.45
2019-03-28T06:39:25.834Z,5.60
2019-03-28T06:41:55.797Z,5.50
2019-03-28T06:44:25.441Z,5.56
2019-03-28T06:46:55.320Z,6.16
2019-03-28T06:49:25.360Z,6.60
2019-03-28T06:51:55.024Z,7.19
2019-03-28T06:54:24.727Z,7.80
2019-03-28T06:56:54.357Z,8.27
2019-03-28T06:59:36.266Z,9.29
2019-03-28T07:01:55.665Z,9.90
2019-03-28T07:04:25.342Z,10.67
2019-03-28T07:06:55.633Z,10.99
2019-03-28T07:09:25.675Z,11.83
2019-03-28T07:11:55.325Z,11.72
2019-03-28T07:14:25.269Z,13.19
2019-03-28T07:16:55.673Z,13.15
2019-03-28T07:19:25.352Z,13.69
2019-03-28T07:21:55.022Z,15.09
2019-03-28T07:24:24.696Z,16.53
2019-03-28T07:26:54.336Z,16.36
2019-03-28T07:29:24.001Z,17.47
2019-03-28T07:31:53.639Z,18.22
2019-03-28T07:34:23.292Z,18.24
2019-03-28T07:36:52.936Z,18.80
2019-03-28T07:39:22.951Z,19.19
2019-03-28T07:41:52.595Z,19.65
2019-03-28T07:44:22.257Z,19.74
2019-03-28T07:46:51.912Z,20.61
2019-03-28T07:49:21.577Z,21.11
2019-03-28T07:51:51.276Z,21.84
2019-03-28T07:54:20.936Z,20.84
2019-03-28T07:56:50.583Z,21.35
2019-03-28T07:59:20.251Z,22.56
2019-03-28T08:01:49.879Z,21.36
2019-03-28T08:04:19.535Z,21.42
2019-03-28T08:06:50.425Z,22.49
2019-03-28T08:09:20.538Z,21.76
2019-03-28T08:11:50.194Z,23.02
2019-03-28T08:14:20.112Z,21.89
2019-03-28T08:16:49.777Z,23.21
2019-03-28T08:19:19.411Z,23.33
2019-03-28T08:21:49.069Z,23.20
2019-03-28T08:24:18.718Z,23.55
2019-03-28T08:26:48.383Z,23.62
2019-03-28T08:29:18.390Z,24.54
2019-03-28T08:31:49.432Z,24.50
2019-03-28T08:34:19.078Z,24.79
2019-03-28T08:36:48.945Z,23.14
2019-03-28T08:39:19.364Z,25.43
2019-03-28T08:41:50.596Z,23.18
2019-03-28T08:44:22.723Z,24.35
2019-03-28T08:46:52.119Z,23.95
2019-03-28T08:49:22.115Z,24.80
2019-03-28T08:51:51.815Z,24.83
2019-03-28T08:54:21.455Z,24.65
2019-03-28T08:56:51.399Z,24.80
2019-03-28T08:59:21.045Z,25.54
2019-03-28T09:01:51.325Z,25.74
2019-03-28T09:04:21.008Z,24.34
2019-03-28T09:06:50.716Z,24.36
2019-03-28T09:09:21.367Z,24.90
2019-03-28T09:11:51.101Z,26.43
2019-03-28T09:14:20.856Z,26.97
2019-03-28T09:16:50.793Z,26.17
2019-03-28T09:19:20.471Z,26.85
2019-03-28T09:21:50.132Z,27.15
2019-03-28T09:24:19.770Z,27.20
2019-03-28T09:26:49.438Z,27.68
2019-03-28T09:29:19.094Z,27.38
2019-03-28T09:31:48.954Z,27.53
2019-03-28T09:34:18.594Z,27.87
2019-03-28T09:36:48.257Z,27.49
2019-03-28T09:39:17.939Z,27.71
2019-03-28T09:41:47.605Z,28.07
2019-03-28T09:44:17.264Z,30.11
2019-03-28T09:46:46.934Z,29.38
2019-03-28T09:49:16.582Z,27.65
2019-03-28T09:51:46.276Z,30.04
2019-03-28T09:54:15.929Z,28.52
2019-03-28T09:56:45.590Z,29.37
2019-03-28T09:59:15.216Z,29.72
2019-03-28T10:01:44.935Z,27.76
2019-03-28T10:04:14.580Z,25.93
2019-03-28T10:06:44.438Z,27.19
2019-03-28T10:09:14.837Z,25.65
2019-03-28T10:11:44.531Z,25.30
2019-03-28T10:14:14.280Z,24.61
2019-03-28T10:16:43.998Z,24.79
2019-03-28T10:19:13.662Z,25.99
2019-03-28T10:21:44.114Z,25.93
2019-03-28T10:24:13.760Z,27.73
2019-03-28T10:26:43.421Z,28.61
2019-03-28T10:29:13.071Z,29.60
2019-03-28T10:31:42.741Z,25.17
2019-03-28T10:34:12.456Z,23.04
2019-03-28T10:36:42.407Z,21.83
2019-03-28T10:39:12.068Z,20.01
2019-03-28T10:41:41.745Z,18.84
2019-03-28T10:44:11.382Z,17.41
2019-03-28T10:46:41.048Z,16.65
2019-03-28T10:49:10.840Z,17.08
2019-03-28T10:51:40.517Z,23.02
2019-03-28T10:54:20.104Z,25.32
2019-03-28T10:56:51.666Z,24.04
2019-03-28T10:59:23.297Z,22.26
2019-03-28T11:01:50.712Z,20.75
2019-03-28T11:04:17.685Z,23.19
2019-03-28T11:06:47.469Z,23.89
2019-03-28T11:09:17.116Z,22.41
2019-03-28T11:11:48.140Z,21.35
2019-03-28T11:14:17.797Z,20.34
2019-03-28T11:16:48.377Z,18.61
2019-03-28T11:19:18.088Z,18.20
2019-03-28T11:21:49.109Z,17.85
2019-03-28T11:24:19.051Z,19.12
2019-03-28T11:26:48.717Z,19.88
2019-03-28T11:29:18.364Z,22.75
2019-03-28T11:31:52.172Z,24.42
2019-03-28T11:34:19.543Z,26.93
2019-03-28T11:36:49.383Z,28.74
2019-03-28T11:39:19.047Z,26.85
2019-03-28T11:41:50.191Z,23.06
2019-03-28T11:44:19.952Z,21.31
2019-03-28T11:46:49.587Z,20.32
2019-03-28T11:49:19.305Z,18.97
2019-03-28T11:51:50.182Z,18.21
2019-03-28T11:54:19.829Z,17.51
2019-03-28T11:56:49.521Z,17.75
2019-03-28T11:59:19.185Z,17.66
2019-03-28T12:01:59.429Z,18.23
2019-03-28T12:04:20.819Z,18.21
2019-03-28T12:06:50.752Z,18.82
2019-03-28T12:09:20.667Z,19.02
2019-03-28T12:11:52.923Z,18.31
2019-03-28T12:14:23.147Z,18.21
2019-03-28T12:16:52.807Z,19.36
2019-03-28T12:19:22.467Z,18.29
2019-03-28T12:21:53.267Z,18.15
2019-03-28T12:24:23.114Z,17.60
2019-03-28T12:26:52.840Z,18.07
2019-03-28T12:29:23.784Z,18.12
2019-03-28T12:31:53.709Z,20.01
2019-03-28T12:34:23.349Z,21.27
2019-03-28T12:36:52.982Z,21.45
2019-03-28T12:39:22.740Z,20.94
2019-03-28T12:41:52.348Z,18.46
2019-03-28T12:44:22.005Z,17.25
2019-03-28T12:46:51.994Z,16.40
2019-03-28T12:49:21.648Z,16.15
2019-03-28T12:51:51.308Z,15.70
2019-03-28T12:54:20.995Z,16.01
2019-03-28T12:56:50.639Z,15.95
2019-03-28T12:59:20.563Z,15.95
2019-03-28T13:01:50.281Z,15.96
2019-03-28T13:04:20.011Z,15.96
2019-03-28T13:06:49.667Z,15.90
2019-03-28T13:09:19.375Z,16.24
2019-03-28T13:11:49.001Z,17.04
2019-03-28T13:14:18.657Z,18.83
2019-03-28T13:16:48.328Z,19.44
2019-03-28T13:19:18.987Z,18.84
2019-03-28T13:21:48.650Z,20.90
2019-03-28T13:24:18.306Z,23.34
2019-03-28T13:26:47.962Z,20.36
2019-03-28T13:29:17.681Z,18.39
2019-03-28T13:31:47.316Z,17.52
2019-03-28T13:34:16.993Z,17.04
2019-03-28T13:36:46.693Z,17.09
2019-03-28T13:39:16.373Z,16.78
2019-03-28T13:41:46.396Z,16.19
2019-03-28T13:44:16.076Z,15.57
2019-03-28T13:46:45.775Z,16.16
2019-03-28T13:49:15.452Z,16.22
2019-03-28T13:51:45.103Z,15.94
2019-03-28T13:54:14.776Z,16.10
2019-03-28T13:56:44.413Z,16.59
2019-03-28T13:59:14.132Z,16.59
2019-03-28T14:01:44.072Z,15.73
2019-03-28T14:04:13.827Z,15.53
2019-03-28T14:06:44.390Z,16.02
2019-03-28T14:09:14.058Z,15.87
2019-03-28T14:11:45.140Z,15.55
2019-03-28T14:14:14.832Z,15.55
2019-03-28T14:16:44.489Z,15.52
2019-03-28T14:19:14.492Z,15.69
2019-03-28T14:21:44.908Z,16.13
2019-03-28T14:24:14.599Z,15.92
2019-03-28T14:26:44.592Z,16.38
2019-03-28T14:29:14.516Z,16.61
2019-03-28T14:31:44.186Z,15.96
2019-03-28T14:34:13.844Z,15.43
2019-03-28T14:36:43.747Z,14.79
2019-03-28T14:39:13.759Z,14.41
2019-03-28T14:41:46.207Z,14.01
2019-03-28T14:44:15.987Z,14.24
2019-03-28T14:46:45.680Z,14.15
2019-03-28T14:49:16.912Z,14.20
2019-03-28T14:51:46.574Z,14.31
2019-03-28T14:54:16.242Z,14.35
2019-03-28T14:56:46.394Z,14.12
2019-03-28T14:59:16.660Z,14.19
2019-03-28T15:01:46.322Z,14.08
2019-03-28T15:04:15.982Z,13.72
2019-03-28T15:06:45.677Z,13.64
2019-03-28T15:09:15.336Z,13.63
2019-03-28T15:11:45.005Z,13.62
2019-03-28T15:14:14.676Z,13.75
2019-03-28T15:16:44.678Z,14.15
2019-03-28T15:19:14.337Z,14.28
2019-03-28T15:21:44.018Z,13.97
2019-03-28T15:24:13.705Z,13.92
2019-03-28T15:26:43.546Z,13.76
2019-03-28T15:29:13.578Z,13.94
2019-03-28T15:31:43.229Z,13.80
2019-03-28T15:34:12.901Z,13.76
2019-03-28T15:36:42.591Z,13.76
2019-03-28T15:39:12.269Z,13.83
2019-03-28T15:41:41.921Z,13.76
2019-03-28T15:44:11.596Z,13.70
2019-03-28T15:46:41.252Z,13.46
2019-03-28T15:49:11.297Z,13.53
2019-03-28T15:51:40.999Z,13.30
2019-03-28T15:54:10.697Z,13.42
2019-03-28T15:56:40.464Z,13.83
2019-03-28T15:59:10.104Z,13.47
2019-03-28T16:01:39.846Z,13.54
2019-03-28T16:04:09.516Z,13.33
2019-03-28T16:06:39.341Z,13.16
2019-03-28T16:09:09.212Z,13.15
2019-03-28T16:11:38.911Z,13.28
2019-03-28T16:14:09.465Z,13.30
2019-03-28T16:16:39.131Z,13.56
2019-03-28T16:19:08.813Z,13.41
2019-03-28T16:21:38.471Z,13.31
2019-03-28T16:24:08.471Z,13.15
2019-03-28T16:26:38.100Z,13.15
2019-03-28T16:29:07.785Z,12.67
2019-03-28T16:31:38.808Z,12.58
2019-03-28T16:34:08.483Z,12.08
2019-03-28T16:36:38.228Z,11.87
2019-03-28T16:39:09.043Z,11.72
2019-03-28T16:41:38.640Z,11.64
2019-03-28T16:44:08.327Z,11.82
2019-03-28T16:46:37.969Z,12.07
2019-03-28T16:49:08.297Z,12.30
2019-03-28T16:51:38.193Z,12.52
2019-03-28T16:54:07.910Z,12.31
2019-03-28T16:56:37.609Z,12.39
2019-03-28T16:59:07.282Z,12.23
2019-03-28T17:01:36.927Z,12.06
2019-03-28T17:04:19.680Z,12.15
2019-03-28T17:06:38.157Z,11.88
2019-03-28T17:09:09.512Z,11.67
2019-03-28T17:11:39.293Z,11.58
2019-03-28T17:14:10.488Z,11.50
2019-03-28T17:16:40.126Z,11.47
2019-03-28T17:19:09.759Z,11.35
2019-03-28T17:21:40.004Z,11.19
2019-03-28T17:24:10.787Z,11.09
2019-03-28T17:26:40.439Z,10.98
2019-03-28T17:29:10.103Z,10.81
2019-03-28T17:31:39.764Z,10.62
2019-03-28T17:34:09.408Z,10.37
2019-03-28T17:36:39.071Z,10.25
2019-03-28T17:39:09.100Z,9.97
2019-03-28T17:41:38.756Z,9.74
2019-03-28T17:44:08.379Z,9.51
2019-03-28T17:46:38.026Z,9.27
2019-03-28T17:49:07.655Z,9.02
2019-03-28T17:51:40.329Z,8.77
2019-03-28T17:54:08.679Z,8.52
2019-03-28T17:56:38.465Z,8.37
2019-03-28T17:59:08.123Z,8.21
2019-03-28T18:01:37.793Z,7.99
2019-03-28T18:04:07.426Z,7.84
2019-03-28T18:06:37.474Z,7.72
2019-03-28T18:09:08.579Z,7.60
2019-03-28T18:11:38.246Z,7.66
2019-03-28T18:14:08.874Z,7.74
2019-03-28T18:16:41.135Z,7.58
2019-03-28T18:19:11.182Z,7.63
2019-03-28T18:21:40.847Z,7.75
2019-03-28T18:24:12.167Z,7.90
2019-03-28T18:26:41.849Z,8.00
2019-03-28T18:29:11.521Z,8.11
2019-03-28T18:31:50.419Z,8.26
2019-03-28T18:34:13.675Z,8.12
2019-03-28T18:36:43.334Z,8.10
2019-03-28T18:39:13.022Z,8.10
2019-03-28T18:41:42.689Z,8.15
2019-03-28T18:44:12.337Z,8.24
2019-03-28T18:46:42.008Z,8.36
2019-03-28T18:49:11.670Z,8.52
2019-03-28T18:51:41.346Z,8.44
2019-03-28T18:54:10.998Z,8.56
2019-03-28T18:56:40.649Z,8.56
2019-03-28T18:59:10.316Z,8.63
2019-03-28T19:01:39.983Z,8.61
2019-03-28T19:04:09.610Z,8.70
2019-03-28T19:06:39.262Z,8.77
2019-03-28T19:09:08.960Z,8.82
2019-03-28T19:11:40.868Z,8.85
2019-03-28T19:14:11.095Z,8.90
2019-03-28T19:16:41.974Z,8.82
2019-03-28T19:19:11.965Z,8.64
2019-03-28T19:21:41.599Z,8.52
2019-03-28T19:24:11.282Z,8.35
2019-03-28T19:26:40.915Z,8.17
2019-03-28T19:29:10.564Z,7.90
2019-03-28T19:31:40.194Z,7.63
2019-03-28T19:34:09.839Z,7.45
2019-03-28T19:36:39.518Z,7.24
2019-03-28T19:39:11.960Z,7.02
2019-03-28T19:41:41.599Z,6.78
2019-03-28T19:44:11.259Z,6.71
2019-03-28T19:46:40.900Z,6.47
2019-03-28T19:49:11.574Z,6.44
2019-03-28T19:51:41.203Z,6.34
2019-03-28T19:54:10.897Z,6.20
2019-03-28T19:56:40.522Z,6.21
2019-03-28T19:59:10.216Z,6.05
2019-03-28T20:01:39.836Z,5.89
2019-03-28T20:04:09.489Z,5.85
2019-03-28T20:07:21.801Z,5.74
2019-03-28T20:09:48.594Z,5.63
2019-03-28T20:12:18.243Z,5.63
2019-03-28T20:14:47.892Z,5.45
2019-03-28T20:17:17.857Z,5.42
2019-03-28T20:19:47.922Z,5.23
2019-03-28T20:22:17.577Z,5.25
2019-03-28T20:24:47.238Z,5.14
2019-03-28T20:27:16.945Z,5.05
2019-03-28T20:29:46.550Z,5.00
2019-03-28T20:32:16.206Z,5.01
2019-03-28T20:34:48.923Z,4.84
2019-03-28T20:37:17.333Z,4.71
2019-03-28T20:39:46.981Z,4.58
2019-03-28T20:42:16.672Z,4.46
2019-03-28T20:44:46.332Z,4.52
2019-03-28T20:47:15.963Z,4.55
2019-03-28T20:49:46.843Z,4.54
2019-03-28T20:52:16.603Z,4.59
2019-03-28T20:54:46.349Z,4.60
2019-03-28T20:57:15.988Z,4.59
2019-03-28T20:59:46.798Z,4.65
2019-03-28T21:02:16.649Z,4.62
2019-03-28T21:04:46.290Z,4.50
2019-03-28T21:07:17.872Z,4.47
2019-03-28T21:09:48.912Z,4.38
2019-03-28T21:12:18.602Z,4.43
2019-03-28T21:14:48.410Z,4.35
2019-03-28T21:17:18.041Z,4.37
2019-03-28T21:19:47.699Z,4.32
2019-03-28T21:22:17.350Z,4.29
2019-03-28T21:24:46.993Z,4.29
2019-03-28T21:27:16.674Z,4.28
2019-03-28T21:29:49.074Z,4.21
2019-03-28T21:32:18.877Z,4.15
2019-03-28T21:34:48.580Z,4.22
2019-03-28T21:37:18.341Z,4.19
2019-03-28T21:39:49.242Z,4.11
2019-03-28T21:42:18.885Z,4.30
2019-03-28T21:44:48.885Z,4.25
2019-03-28T21:47:18.679Z,4.35
2019-03-28T21:49:49.686Z,4.28
2019-03-28T21:52:19.352Z,4.28
2019-03-28T21:54:49.024Z,4.32
2019-03-28T21:57:18.681Z,4.14
2019-03-28T21:59:48.933Z,4.19
2019-03-28T22:02:18.798Z,4.27
2019-03-28T22:04:48.446Z,4.43
2019-03-28T22:07:18.109Z,4.41
2019-03-28T22:09:47.808Z,4.38
2019-03-28T22:12:17.445Z,4.19
2019-03-28T22:14:48.335Z,4.06
2019-03-28T22:17:18.206Z,3.98
2019-03-28T22:19:47.884Z,3.94
2019-03-28T22:22:17.528Z,3.93
2019-03-28T22:24:47.145Z,3.82
2019-03-28T22:27:16.789Z,3.77
2019-03-28T22:29:46.983Z,3.69
2019-03-28T22:32:16.754Z,3.65
2019-03-28T22:34:46.403Z,3.62
2019-03-28T22:37:16.071Z,3.52
2019-03-28T22:39:45.698Z,3.52
2019-03-28T22:42:15.350Z,3.59
2019-03-28T22:44:44.989Z,3.48
2019-03-28T22:47:14.698Z,3.50
2019-03-28T22:49:44.323Z,3.51
2019-03-28T22:52:14.021Z,3.47
2019-03-28T22:54:43.718Z,3.35
2019-03-28T22:57:13.362Z,3.29
2019-03-28T22:59:43.003Z,3.35
2019-03-28T23:02:12.659Z,3.34
2019-03-28T23:04:42.285Z,3.23
2019-03-28T23:07:11.936Z,3.15
2019-03-28T23:09:41.581Z,3.16
2019-03-28T23:12:11.270Z,3.04
2019-03-28T23:14:40.892Z,3.08
2019-03-28T23:17:10.562Z,3.05
2019-03-28T23:19:40.250Z,3.05
2019-03-28T23:22:09.890Z,2.89
2019-03-28T23:24:39.511Z,2.93
2019-03-28T23:27:09.191Z,2.97
2019-03-28T23:29:38.833Z,2.93
2019-03-28T23:32:08.494Z,2.95
2019-03-28T23:34:38.124Z,2.83
2019-03-28T23:37:07.813Z,2.75
2019-03-28T23:39:37.861Z,2.76
2019-03-28T23:42:07.674Z,2.83
2019-03-28T23:44:37.313Z,2.79
2019-03-28T23:47:06.951Z,2.71
2019-03-28T23:49:38.680Z,2.77
2019-03-28T23:52:09.549Z,2.66
2019-03-28T23:54:39.290Z,2.67
2019-03-28T23:57:08.953Z,2.60
2019-03-28T23:59:39.262Z,2.61
